createdAt,value
2023-03-17T00:05:54.798Z,94516.44
2023-03-17T00:20:56.584Z,94514.69
2023-03-17T00:35:59.452Z,94512.56
2023-03-17T00:51:01.175Z,94509.09
2023-03-17T01:06:05.005Z,94522.72
2023-03-17T01:21:07.893Z,94523.00
2023-03-17T01:36:10.983Z,94531.38
2023-03-17T01:51:18.873Z,94530.06
2023-03-17T02:06:20.650Z,94543.84
2023-03-17T02:21:35.312Z,94538.94
2023-03-17T02:36:37.678Z,94554.28
2023-03-17T02:51:39.714Z,94570.41
2023-03-17T03:06:42.622Z,94574.13
2023-03-17T03:21:44.790Z,94591.00
2023-03-17T03:36:46.524Z,94597.66
2023-03-17T03:51:48.224Z,94609.84
2023-03-17T04:06:50.242Z,94625.19
2023-03-17T04:21:53.707Z,94632.31
2023-03-17T04:36:56.998Z,94645.06
2023-03-17T04:52:02.114Z,94653.34
2023-03-17T05:07:04.838Z,94672.59
2023-03-17T05:22:06.577Z,94690.38
2023-03-17T05:37:08.775Z,94702.81
2023-03-17T05:52:10.556Z,94713.91
2023-03-17T06:07:13.141Z,94738.91
2023-03-17T06:22:15.126Z,94762.41
2023-03-17T06:37:19.917Z,94770.53
2023-03-17T06:52:23.445Z,94776.66
2023-03-17T07:07:25.635Z,94788.97
2023-03-17T07:22:27.640Z,94792.19
2023-03-17T07:37:29.429Z,94800.22
2023-03-17T07:52:31.504Z,94804.31
2023-03-17T08:07:34.039Z,94816.22
2023-03-17T08:22:36.197Z,94813.34
2023-03-17T08:37:38.115Z,94814.63
2023-03-17T08:52:39.901Z,94820.06
2023-03-17T09:07:42.121Z,94815.16
2023-03-17T09:22:43.889Z,94815.81
2023-03-17T09:37:45.631Z,94828.91
2023-03-17T09:52:48.782Z,94835.53
2023-03-17T10:08:29.018Z,94835.09
2023-03-17T10:23:36.206Z,94833.88
2023-03-17T10:38:37.946Z,94826.75
2023-03-17T10:53:44.485Z,94815.41
2023-03-17T11:08:54.875Z,94793.16
2023-03-17T11:24:14.190Z,94789.22
2023-03-17T11:39:25.532Z,94777.34
2023-03-17T11:54:54.195Z,94772.72
2023-03-17T12:25:16.824Z,94747.56
2023-03-17T12:40:34.242Z,94752.59
2023-03-17T12:55:36.985Z,94742.16
2023-03-17T13:10:40.906Z,94738.22
2023-03-17T13:25:43.131Z,94737.66
2023-03-17T13:41:21.800Z,94738.06
2023-03-17T13:56:47.440Z,94734.72
2023-03-17T14:11:51.461Z,94741.03
2023-03-17T14:26:53.543Z,94743.53
2023-03-17T14:42:03.951Z,94750.94
2023-03-17T14:57:08.093Z,94753.13
2023-03-17T15:12:24.227Z,94758.88
2023-03-17T15:27:26.656Z,94771.22
2023-03-17T15:42:31.711Z,94792.31
2023-03-17T15:57:33.425Z,94789.91
2023-03-17T16:12:35.414Z,94804.91
2023-03-17T16:27:37.148Z,94812.53
2023-03-17T16:42:41.555Z,94820.00
2023-03-17T16:58:18.300Z,94814.63
2023-03-17T17:13:21.405Z,94815.59
2023-03-17T17:28:36.071Z,94831.38
2023-03-17T17:43:38.628Z,94832.44
2023-03-17T17:58:40.549Z,94843.41
2023-03-17T18:13:42.600Z,94839.88
2023-03-17T18:28:44.975Z,94823.91
2023-03-17T18:43:47.728Z,94841.94
2023-03-17T18:58:50.080Z,94853.53
2023-03-17T19:13:52.793Z,94853.31
2023-03-17T19:28:57.898Z,94840.63
2023-03-17T19:44:03.157Z,94834.56
2023-03-17T19:59:11.280Z,94825.25
2023-03-17T20:14:13.133Z,94821.91
2023-03-17T20:29:16.247Z,94803.25
2023-03-17T20:44:18.882Z,94799.56
2023-03-17T20:59:20.648Z,94812.91
2023-03-17T21:14:23.216Z,94798.22
2023-03-17T21:29:25.395Z,94794.03
2023-03-17T21:44:27.128Z,94786.84
2023-03-17T21:59:31.885Z,94790.16
2023-03-17T22:14:35.556Z,94791.06
2023-03-17T22:29:38.189Z,94781.69
2023-03-17T22:44:40.448Z,94786.25
2023-03-17T22:59:42.231Z,94769.16
2023-03-17T23:14:44.004Z,94767.06
2023-03-17T23:29:45.771Z,94765.94
2023-03-17T23:44:47.602Z,94760.38
2023-03-17T23:59:49.244Z,94746.28
